Time;durP1;ratioP1;P1;durP2;ratioP2;P2;SDS_P1;SDS_P2;PMS_P1;PMS_P2;Temp;Humidity;BMP_temperature;BMP_pressure;BME280_temperature;BME280_humidity;BME280_pressure;Samples;Min_cycle;Max_cycle;Signal;HPM_P1;HPM_P2
2021/08/16 00:01:07;;;;;;;14.20;13.10;;;20.20;99.90;;;;;;4951684;28;20206;-79
2021/08/16 00:03:34;;;;;;;14.17;13.07;;;20.30;99.90;;;;;;4965087;28;20265;-81
2021/08/16 00:06:03;;;;;;;13.43;12.33;;;20.30;99.90;;;;;;4947920;28;20198;-79
2021/08/16 00:08:29;;;;;;;11.67;10.67;;;20.40;99.90;;;;;;4952584;29;20206;-79
2021/08/16 00:10:57;;;;;;;12.00;10.87;;;20.40;99.90;;;;;;4969104;28;20545;-79
2021/08/16 00:13:25;;;;;;;11.27;10.17;;;20.40;99.90;;;;;;4967319;28;20277;-79
2021/08/16 00:15:52;;;;;;;11.07;10.17;;;20.50;99.90;;;;;;4966137;28;20294;-79
2021/08/16 00:18:19;;;;;;;11.77;10.60;;;20.50;99.90;;;;;;4967724;28;20209;-79
2021/08/16 00:20:46;;;;;;;11.40;10.47;;;20.50;99.90;;;;;;4947632;28;20207;-79
2021/08/16 00:23:13;;;;;;;11.83;10.80;;;20.50;99.90;;;;;;4969562;28;20266;-79
2021/08/16 00:25:40;;;;;;;11.50;10.47;;;20.50;99.90;;;;;;4965022;28;20694;-79
2021/08/16 00:28:08;;;;;;;12.47;11.23;;;20.50;99.90;;;;;;4948644;28;20249;-79
2021/08/16 00:30:35;;;;;;;12.10;11.10;;;20.50;99.90;;;;;;4964782;28;20202;-79
2021/08/16 00:33:02;;;;;;;12.37;11.37;;;20.50;99.90;;;;;;4947396;28;20226;-79
2021/08/16 00:35:29;;;;;;;14.23;12.90;;;20.50;99.90;;;;;;4965702;28;20721;-79
2021/08/16 00:37:55;;;;;;;14.70;13.50;;;20.50;99.90;;;;;;4967680;28;20741;-79
2021/08/16 00:40:22;;;;;;;14.37;13.07;;;20.50;99.90;;;;;;4968015;28;20246;-79
2021/08/16 00:42:49;;;;;;;13.10;12.00;;;20.50;99.90;;;;;;4966387;28;20617;-79
2021/08/16 00:45:17;;;;;;;13.57;12.27;;;20.50;99.90;;;;;;4967076;28;20213;-79
2021/08/16 00:47:44;;;;;;;12.33;11.23;;;20.50;99.90;;;;;;4961598;28;20206;-79
2021/08/16 00:50:13;;;;;;;12.43;11.43;;;20.50;99.90;;;;;;4967533;28;20250;-79
2021/08/16 00:52:42;;;;;;;13.70;12.37;;;20.50;99.90;;;;;;4952974;28;20194;-79
2021/08/16 00:55:11;;;;;;;13.30;12.20;;;20.50;99.90;;;;;;4967449;28;20219;-77
2021/08/16 00:57:38;;;;;;;16.03;14.73;;;20.50;99.90;;;;;;4951109;28;20257;-79
2021/08/16 01:00:07;;;;;;;17.27;15.90;;;20.40;99.90;;;;;;4948670;28;20203;-79
2021/08/16 01:02:36;;;;;;;14.93;12.73;;;20.40;99.90;;;;;;4964649;28;20264;-79
2021/08/16 01:05:04;;;;;;;13.90;12.63;;;20.30;99.90;;;;;;4948320;28;20195;-79
2021/08/16 01:07:32;;;;;;;13.17;11.87;;;20.30;99.90;;;;;;4962937;28;20199;-79
2021/08/16 01:09:59;;;;;;;14.27;12.93;;;20.30;99.90;;;;;;4964351;28;20269;-79
2021/08/16 01:12:27;;;;;;;14.77;13.37;;;20.30;99.90;;;;;;4948180;28;20256;-79
2021/08/16 01:14:54;;;;;;;13.93;12.53;;;20.30;99.90;;;;;;4969395;28;20278;-79
2021/08/16 01:17:21;;;;;;;14.17;12.97;;;20.30;99.90;;;;;;4968827;28;20216;-79
2021/08/16 01:19:49;;;;;;;13.30;12.00;;;20.20;99.90;;;;;;4964369;28;20265;-79
2021/08/16 01:22:16;;;;;;;13.50;12.30;;;20.20;99.90;;;;;;4964805;28;20203;-79
2021/08/16 01:24:44;;;;;;;13.77;12.47;;;20.20;99.90;;;;;;4954568;28;20222;-79
2021/08/16 01:27:12;;;;;;;13.73;12.43;;;20.20;99.90;;;;;;4968118;28;20203;-79
2021/08/16 01:29:40;;;;;;;14.07;12.77;;;20.20;99.90;;;;;;4967365;28;20208;-80
2021/08/16 01:32:08;;;;;;;14.57;13.13;;;20.10;99.90;;;;;;4952877;29;20206;-79
2021/08/16 01:34:35;;;;;;;13.30;12.00;;;20.10;99.90;;;;;;4972547;28;20313;-79
2021/08/16 01:37:02;;;;;;;13.00;11.70;;;20.10;99.90;;;;;;4968331;28;20202;-79
2021/08/16 01:39:29;;;;;;;13.57;12.30;;;20.10;99.90;;;;;;4967994;28;20208;-79
2021/08/16 01:41:56;;;;;;;14.13;12.73;;;20.20;99.90;;;;;;4969881;28;20200;-79
2021/08/16 01:44:25;;;;;;;16.67;15.33;;;20.20;99.90;;;;;;4949961;28;20233;-79
2021/08/16 01:46:53;;;;;;;17.30;15.80;;;20.20;99.90;;;;;;4965585;28;20252;-79
2021/08/16 01:49:20;;;;;;;18.73;17.40;;;20.20;99.90;;;;;;4956819;28;20199;-79
2021/08/16 01:51:48;;;;;;;19.50;17.67;;;20.20;99.90;;;;;;4950823;28;20218;-79
2021/08/16 01:54:16;;;;;;;19.80;17.87;;;20.20;99.90;;;;;;4971852;28;20689;-78
2021/08/16 01:56:43;;;;;;;21.07;19.07;;;20.10;99.90;;;;;;4950175;28;20215;-78
2021/08/16 01:59:10;;;;;;;20.00;18.50;;;19.80;99.90;;;;;;4948674;28;20694;-79
2021/08/16 02:01:38;;;;;;;18.30;17.10;;;19.40;99.90;;;;;;4965245;28;20203;-79
2021/08/16 02:04:05;;;;;;;19.60;18.10;;;19.20;99.90;;;;;;4952816;28;20639;-79
2021/08/16 02:06:32;;;;;;;19.37;17.97;;;19.00;99.90;;;;;;4964466;28;20206;-79
2021/08/16 02:08:59;;;;;;;19.77;18.47;;;18.90;99.90;;;;;;4975342;28;20632;-79
2021/08/16 02:11:26;;;;;;;19.80;18.50;;;18.80;99.90;;;;;;4947135;29;20265;-79
2021/08/16 02:13:52;;;;;;;19.50;18.20;;;18.80;99.90;;;;;;4974567;28;20649;-79
2021/08/16 02:16:19;;;;;;;19.67;18.27;;;18.70;99.90;;;;;;4969344;28;20267;-79
2021/08/16 02:18:47;;;;;;;19.40;18.10;;;18.70;99.90;;;;;;4971688;28;20204;-79
2021/08/16 02:21:14;;;;;;;20.10;18.70;;;18.70;99.90;;;;;;4959927;28;20197;-79
2021/08/16 02:23:41;;;;;;;19.53;18.10;;;18.70;99.90;;;;;;4970547;28;20233;-79
2021/08/16 02:26:08;;;;;;;20.07;18.53;;;18.80;99.90;;;;;;4967288;28;20574;-79
2021/08/16 02:28:35;;;;;;;18.87;17.67;;;18.70;99.90;;;;;;4969911;28;20261;-78
2021/08/16 02:31:02;;;;;;;20.60;19.00;;;18.80;99.90;;;;;;4973880;28;20232;-78
2021/08/16 02:33:29;;;;;;;19.90;18.50;;;18.80;99.90;;;;;;4961751;28;20281;-79
2021/08/16 02:35:57;;;;;;;19.40;18.03;;;18.80;99.90;;;;;;4966715;28;20197;-78
2021/08/16 02:38:24;;;;;;;20.73;19.13;;;18.70;99.90;;;;;;4951667;28;20201;-77
2021/08/16 02:40:58;;;;;;;19.27;17.90;;;18.70;99.90;;;;;;4973503;28;20231;-78
2021/08/16 02:43:28;;;;;;;18.60;17.40;;;18.60;99.90;;;;;;4959348;28;20225;-77
2021/08/16 02:45:54;;;;;;;20.00;18.40;;;18.60;99.90;;;;;;4976348;28;20200;-77
2021/08/16 02:48:21;;;;;;;20.53;19.13;;;18.60;99.90;;;;;;4972133;28;20589;-79
2021/08/16 02:50:48;;;;;;;20.97;19.47;;;18.60;99.90;;;;;;4973368;28;20211;-78
2021/08/16 02:53:16;;;;;;;20.27;18.80;;;18.60;99.90;;;;;;4961783;28;20280;-79
2021/08/16 02:55:43;;;;;;;20.67;19.23;;;18.60;99.90;;;;;;4952749;28;20228;-78
2021/08/16 02:58:12;;;;;;;20.77;19.20;;;18.60;99.90;;;;;;4971074;28;20209;-78
2021/08/16 03:00:41;;;;;;;22.27;20.60;;;18.70;99.90;;;;;;4968321;28;20218;-78
2021/08/16 03:03:08;;;;;;;20.37;18.87;;;18.70;99.90;;;;;;4970119;28;20215;-78
2021/08/16 03:05:35;;;;;;;22.03;20.53;;;18.70;99.90;;;;;;4947568;28;20345;-78
2021/08/16 03:08:02;;;;;;;21.23;19.73;;;18.60;99.90;;;;;;4970378;28;20209;-78
2021/08/16 03:10:30;;;;;;;21.90;20.20;;;18.60;99.90;;;;;;4970317;28;20265;-77
2021/08/16 03:12:59;;;;;;;21.00;19.40;;;18.70;99.90;;;;;;4974192;28;20671;-77
2021/08/16 03:15:27;;;;;;;21.67;20.20;;;18.60;99.90;;;;;;4971280;28;20225;-78
2021/08/16 03:17:55;;;;;;;20.97;19.37;;;18.60;99.90;;;;;;4963472;28;20202;-77
2021/08/16 03:20:22;;;;;;;20.33;18.83;;;18.60;99.90;;;;;;4951268;29;20580;-77
2021/08/16 03:22:48;;;;;;;20.33;18.93;;;18.60;99.90;;;;;;4955662;28;20207;-77
2021/08/16 03:25:15;;;;;;;20.83;19.20;;;18.50;99.90;;;;;;4967960;28;20252;-77
2021/08/16 03:27:43;;;;;;;20.53;19.13;;;18.50;99.90;;;;;;4967961;28;20231;-79
2021/08/16 03:30:12;;;;;;;20.77;19.37;;;18.50;99.90;;;;;;4963702;28;20244;-79
2021/08/16 03:32:39;;;;;;;20.87;19.47;;;18.50;99.90;;;;;;4963000;28;20223;-81
2021/08/16 03:35:07;;;;;;;21.83;20.20;;;18.50;99.90;;;;;;4947610;28;20893;-79
2021/08/16 03:37:35;;;;;;;21.57;20.07;;;18.50;99.90;;;;;;4960554;28;20627;-79
2021/08/16 03:40:03;;;;;;;21.67;20.10;;;18.40;99.90;;;;;;4967423;28;20200;-79
2021/08/16 03:42:30;;;;;;;22.33;20.83;;;18.50;99.90;;;;;;4967938;28;20698;-79
2021/08/16 03:44:58;;;;;;;22.60;21.00;;;18.50;99.90;;;;;;4946512;28;20253;-79
2021/08/16 03:47:25;;;;;;;22.00;20.40;;;18.50;99.90;;;;;;4947769;28;20196;-79
2021/08/16 03:49:54;;;;;;;21.93;20.27;;;18.50;99.90;;;;;;4965155;28;20231;-79
2021/08/16 03:52:21;;;;;;;21.27;19.77;;;18.50;99.90;;;;;;4973622;28;20205;-81
2021/08/16 03:54:47;;;;;;;21.60;20.00;;;18.50;99.90;;;;;;4947965;28;20665;-77
2021/08/16 03:57:14;;;;;;;20.47;19.07;;;18.50;99.90;;;;;;4966302;28;20204;-77
2021/08/16 03:59:41;;;;;;;21.30;19.70;;;18.50;99.90;;;;;;4952568;28;20621;-79
2021/08/16 04:02:09;;;;;;;20.50;19.10;;;18.50;99.90;;;;;;4961930;28;20206;-79
2021/08/16 04:04:36;;;;;;;20.93;19.43;;;18.50;99.90;;;;;;4952863;28;20300;-79
2021/08/16 04:07:03;;;;;;;20.83;19.33;;;18.50;99.90;;;;;;4968623;28;20201;-79
2021/08/16 04:09:29;;;;;;;20.70;19.17;;;18.50;99.90;;;;;;4965178;28;20223;-79
2021/08/16 04:11:56;;;;;;;21.90;20.27;;;18.50;99.90;;;;;;4967710;28;20651;-79
2021/08/16 04:14:23;;;;;;;21.77;20.17;;;18.50;99.90;;;;;;4965154;28;20710;-79
2021/08/16 04:16:50;;;;;;;22.07;20.47;;;18.50;99.90;;;;;;4970111;28;20209;-79
2021/08/16 04:19:18;;;;;;;21.30;19.90;;;18.50;99.90;;;;;;4965529;28;20652;-79
2021/08/16 04:21:45;;;;;;;21.43;19.93;;;18.50;99.90;;;;;;4952479;28;20205;-79
2021/08/16 04:24:12;;;;;;;21.87;20.27;;;18.40;99.90;;;;;;4965655;28;20270;-79
2021/08/16 04:26:39;;;;;;;21.57;20.17;;;18.50;99.90;;;;;;4963627;28;20220;-79
2021/08/16 04:29:05;;;;;;;21.20;19.80;;;18.50;99.90;;;;;;4969373;28;20637;-79
2021/08/16 04:31:33;;;;;;;22.10;20.53;;;18.50;99.90;;;;;;4964722;28;20295;-79
2021/08/16 04:33:59;;;;;;;21.37;19.97;;;18.50;99.90;;;;;;4964737;28;20221;-79
2021/08/16 04:36:27;;;;;;;21.50;19.90;;;18.50;99.90;;;;;;4964859;28;20246;-80
2021/08/16 04:38:54;;;;;;;21.53;20.13;;;18.50;99.90;;;;;;4969041;28;20275;-80
2021/08/16 04:41:21;;;;;;;22.30;20.67;;;18.50;99.90;;;;;;4950752;28;20672;-79
2021/08/16 04:43:48;;;;;;;21.70;20.20;;;18.60;99.90;;;;;;4966719;28;20232;-79
2021/08/16 04:46:15;;;;;;;22.63;20.83;;;18.60;99.90;;;;;;4949747;28;20201;-79
2021/08/16 04:48:42;;;;;;;21.50;20.03;;;18.60;99.90;;;;;;4964353;28;20653;-79
2021/08/16 04:51:09;;;;;;;22.20;20.57;;;18.60;99.90;;;;;;4964847;28;20224;-79
2021/08/16 04:53:37;;;;;;;22.93;21.20;;;18.70;99.90;;;;;;4959469;28;20232;-79
2021/08/16 04:56:04;;;;;;;23.27;21.50;;;18.70;99.90;;;;;;4952116;28;20772;-79
2021/08/16 04:58:31;;;;;;;22.60;21.00;;;18.80;99.90;;;;;;4974898;28;20275;-79
2021/08/16 05:00:58;;;;;;;21.90;20.40;;;18.90;99.90;;;;;;4971713;28;20588;-79
2021/08/16 05:03:25;;;;;;;23.47;21.87;;;18.90;99.90;;;;;;4972107;28;20217;-80
2021/08/16 05:05:53;;;;;;;22.60;21.00;;;19.00;99.90;;;;;;4969371;28;20198;-80
2021/08/16 05:08:20;;;;;;;23.20;21.53;;;19.00;99.90;;;;;;4970071;28;20210;-79
2021/08/16 05:10:49;;;;;;;23.13;21.47;;;19.10;99.90;;;;;;4968269;28;20740;-80
2021/08/16 05:13:16;;;;;;;22.57;20.97;;;19.10;99.90;;;;;;4966800;28;20240;-80
2021/08/16 05:15:44;;;;;;;23.23;21.40;;;19.10;99.90;;;;;;4956973;28;20286;-79
2021/08/16 05:18:11;;;;;;;23.30;21.70;;;19.00;99.90;;;;;;4967956;28;20307;-79
2021/08/16 05:20:38;;;;;;;23.23;21.63;;;19.00;99.90;;;;;;4967441;28;20252;-80
2021/08/16 05:23:06;;;;;;;24.13;22.10;;;19.10;99.90;;;;;;4953291;28;20225;-79
2021/08/16 05:25:33;;;;;;;23.83;22.00;;;19.00;99.90;;;;;;4972606;28;20324;-79
2021/08/16 05:28:01;;;;;;;23.23;21.63;;;19.00;99.90;;;;;;4950902;28;20210;-79
2021/08/16 05:30:28;;;;;;;23.30;21.70;;;19.00;99.90;;;;;;4964435;28;20265;-79
2021/08/16 05:32:55;;;;;;;23.90;21.97;;;19.00;99.90;;;;;;4954823;28;20265;-79
2021/08/16 05:35:22;;;;;;;23.77;21.97;;;19.10;99.90;;;;;;4967723;28;20210;-79
2021/08/16 05:37:48;;;;;;;23.33;21.73;;;19.10;99.90;;;;;;4966481;28;20217;-79
2021/08/16 05:40:15;;;;;;;23.13;21.53;;;19.20;99.90;;;;;;4956333;28;20206;-79
2021/08/16 05:42:42;;;;;;;22.40;20.90;;;19.20;99.90;;;;;;4950352;28;20265;-79
2021/08/16 05:45:11;;;;;;;22.33;20.80;;;19.20;99.90;;;;;;4975033;28;20202;-79
2021/08/16 05:47:38;;;;;;;22.60;21.03;;;19.30;99.90;;;;;;4946167;28;20202;-79
2021/08/16 05:50:06;;;;;;;23.33;21.73;;;19.40;99.90;;;;;;4975590;28;20254;-79
2021/08/16 05:52:33;;;;;;;24.43;22.60;;;19.40;99.90;;;;;;4970623;28;20202;-79
2021/08/16 05:55:00;;;;;;;23.07;21.47;;;19.50;99.90;;;;;;4967825;28;20331;-79
2021/08/16 05:57:28;;;;;;;23.87;22.13;;;19.60;99.90;;;;;;4967413;28;20235;-80
2021/08/16 05:59:55;;;;;;;22.80;21.30;;;19.70;99.90;;;;;;4957737;28;20207;-79
2021/08/16 06:02:23;;;;;;;17.60;16.17;;;19.70;99.90;;;;;;4971277;28;20198;-80
2021/08/16 06:04:50;;;;;;;18.30;17.00;;;19.80;99.90;;;;;;4957212;28;20223;-79
2021/08/16 06:07:18;;;;;;;19.10;17.67;;;19.80;99.90;;;;;;4951807;28;20203;-79
2021/08/16 06:09:45;;;;;;;20.97;19.57;;;19.80;99.90;;;;;;4971244;28;20199;-79
2021/08/16 06:12:12;;;;;;;19.10;17.60;;;19.80;99.90;;;;;;4946623;28;20212;-78
2021/08/16 06:14:38;;;;;;;22.70;21.17;;;19.80;99.90;;;;;;4972470;28;20282;-79
2021/08/16 06:17:05;;;;;;;15.63;14.37;;;19.80;99.90;;;;;;4971999;28;20286;-79
2021/08/16 06:19:34;;;;;;;18.13;16.83;;;19.80;99.90;;;;;;4949619;28;20203;-79
2021/08/16 06:22:01;;;;;;;15.60;14.30;;;19.90;99.90;;;;;;4949788;28;20250;-80
2021/08/16 06:24:28;;;;;;;11.70;10.50;;;20.00;99.90;;;;;;4967022;28;20332;-79
2021/08/16 06:26:55;;;;;;;11.03;10.03;;;20.10;99.90;;;;;;4966773;28;20194;-79
2021/08/16 06:29:23;;;;;;;11.03;10.03;;;20.20;99.90;;;;;;4968350;28;20209;-79
2021/08/16 06:31:49;;;;;;;11.73;10.63;;;20.10;99.90;;;;;;4954250;28;20629;-79
2021/08/16 06:34:16;;;;;;;11.63;10.47;;;20.10;99.90;;;;;;4969824;28;20226;-80
2021/08/16 06:36:54;;;;;;;12.00;10.90;;;20.10;99.90;;;;;;4949433;28;20226;-79
2021/08/16 06:39:22;;;;;;;12.33;10.20;;;20.10;99.90;;;;;;4953955;28;20223;-80
2021/08/16 06:41:50;;;;;;;11.47;10.30;;;20.10;99.90;;;;;;4966685;28;20198;-80
2021/08/16 06:44:18;;;;;;;13.20;12.10;;;20.20;99.90;;;;;;4966407;28;20282;-79
2021/08/16 06:46:45;;;;;;;10.97;9.87;;;20.50;99.90;;;;;;4957222;28;20226;-79
2021/08/16 06:49:11;;;;;;;14.60;13.40;;;20.80;99.90;;;;;;4954281;28;20679;-80
2021/08/16 06:51:39;;;;;;;14.37;13.07;;;21.00;99.90;;;;;;4967094;28;20202;-79
2021/08/16 06:54:07;;;;;;;12.90;11.90;;;21.00;99.90;;;;;;4971174;28;20238;-80
2021/08/16 06:56:34;;;;;;;13.90;12.83;;;21.10;99.90;;;;;;4953668;28;20235;-80
2021/08/16 06:59:01;;;;;;;16.50;15.13;;;21.10;99.90;;;;;;4974428;28;20263;-79
2021/08/16 07:01:29;;;;;;;13.50;12.30;;;21.20;99.90;;;;;;4955924;28;20208;-80
2021/08/16 07:03:57;;;;;;;15.50;14.20;;;21.30;99.90;;;;;;4948933;28;20220;-80
2021/08/16 07:06:24;;;;;;;14.23;13.13;;;21.20;99.90;;;;;;4946236;28;20253;-79
2021/08/16 07:08:52;;;;;;;13.73;12.57;;;21.20;99.90;;;;;;4970255;28;20215;-80
2021/08/16 07:11:20;;;;;;;18.23;16.93;;;21.10;99.90;;;;;;4966173;28;20201;-80
2021/08/16 07:13:47;;;;;;;15.07;13.87;;;21.00;99.90;;;;;;4955514;28;20274;-79
2021/08/16 07:16:13;;;;;;;15.30;13.90;;;21.00;99.90;;;;;;4953338;29;20218;-80
2021/08/16 07:18:40;;;;;;;14.80;13.70;;;21.10;99.90;;;;;;4954214;28;20245;-79
2021/08/16 07:21:07;;;;;;;14.03;13.03;;;21.20;99.90;;;;;;4951848;28;20237;-80
2021/08/16 07:23:37;;;;;;;11.47;10.57;;;21.60;99.90;;;;;;4970935;28;20236;-79
2021/08/16 07:26:05;;;;;;;12.83;11.83;;;22.00;99.90;;;;;;4953249;28;20197;-79
2021/08/16 07:28:35;;;;;;;14.40;13.23;;;22.10;99.90;;;;;;4965574;28;20669;-83
2021/08/16 07:31:02;;;;;;;13.83;12.77;;;22.30;99.90;;;;;;4965623;28;20264;-80
2021/08/16 07:33:29;;;;;;;14.60;13.43;;;22.40;99.90;;;;;;4966063;28;20222;-80
2021/08/16 07:35:56;;;;;;;15.20;14.10;;;22.30;99.90;;;;;;4945134;28;20217;-80
2021/08/16 07:38:23;;;;;;;10.10;9.27;;;22.30;99.90;;;;;;4966725;28;20203;-80
2021/08/16 07:40:50;;;;;;;7.73;6.93;;;22.60;99.90;;;;;;4970278;28;20205;-80
2021/08/16 07:43:18;;;;;;;13.27;12.27;;;23.00;99.90;;;;;;4968154;28;20620;-79
2021/08/16 07:45:46;;;;;;;10.00;7.20;;;23.00;99.90;;;;;;4948289;28;20210;-80
2021/08/16 07:48:13;;;;;;;8.33;6.70;;;22.80;99.90;;;;;;4946397;28;20231;-80
2021/08/16 07:50:40;;;;;;;7.17;5.43;;;22.60;99.90;;;;;;4951286;28;20206;-80
2021/08/16 07:53:08;;;;;;;12.63;11.63;;;23.20;99.90;;;;;;4965817;28;20222;-80
2021/08/16 07:55:35;;;;;;;15.40;14.30;;;23.80;99.90;;;;;;4965450;28;20221;-80
2021/08/16 07:58:02;;;;;;;14.40;13.40;;;24.30;99.90;;;;;;4969653;28;20270;-79
2021/08/16 08:00:29;;;;;;;9.40;8.13;;;24.50;99.90;;;;;;4952872;29;20240;-80
2021/08/16 08:02:57;;;;;;;8.67;5.63;;;24.40;99.90;;;;;;4969870;28;20198;-80
2021/08/16 08:05:25;;;;;;;8.13;7.43;;;24.30;99.90;;;;;;4967521;28;20252;-80
2021/08/16 08:07:52;;;;;;;12.73;11.73;;;24.10;99.90;;;;;;4948024;28;20249;-80
2021/08/16 08:10:21;;;;;;;12.07;11.17;;;24.10;99.90;;;;;;4967746;28;20206;-80
2021/08/16 08:12:49;;;;;;;13.90;12.70;;;24.50;99.90;;;;;;4964891;28;20252;-81
2021/08/16 08:15:17;;;;;;;8.00;5.10;;;25.10;99.90;;;;;;4947898;28;20335;-80
2021/08/16 08:17:44;;;;;;;10.97;10.07;;;25.70;99.90;;;;;;4954263;28;20257;-80
2021/08/16 08:20:13;;;;;;;9.93;8.97;;;25.70;99.90;;;;;;4953629;28;20191;-80
2021/08/16 08:22:40;;;;;;;11.03;10.13;;;25.60;99.90;;;;;;4964909;28;20553;-80
2021/08/16 08:25:08;;;;;;;12.87;11.87;;;25.40;99.90;;;;;;4968179;28;20726;-80
2021/08/16 08:27:35;;;;;;;12.57;11.70;;;25.30;99.90;;;;;;4969334;28;20249;-80
2021/08/16 08:30:02;;;;;;;6.37;4.80;;;25.20;99.90;;;;;;4964329;28;20207;-80
2021/08/16 08:32:29;;;;;;;6.77;5.20;;;25.20;99.90;;;;;;4961495;28;20217;-80
2021/08/16 08:34:55;;;;;;;4.50;4.10;;;25.10;99.90;;;;;;4967611;28;20274;-80
2021/08/16 08:37:23;;;;;;;5.90;4.57;;;25.40;99.90;;;;;;4966625;28;20224;-80
2021/08/16 08:39:50;;;;;;;10.13;9.13;;;25.90;99.90;;;;;;4955919;28;20680;-80
2021/08/16 08:42:17;;;;;;;11.10;10.27;;;26.30;99.90;;;;;;4947416;28;20277;-81
2021/08/16 08:44:44;;;;;;;6.73;5.83;;;26.70;99.90;;;;;;4955235;28;20238;-82
2021/08/16 08:47:13;;;;;;;11.70;10.90;;;27.10;99.90;;;;;;4968694;28;20225;-80
2021/08/16 08:49:41;;;;;;;7.30;5.93;;;27.30;99.90;;;;;;4952139;28;20249;-80
2021/08/16 08:52:08;;;;;;;12.77;11.87;;;27.40;99.90;;;;;;4966631;28;20205;-80
2021/08/16 08:54:36;;;;;;;12.23;11.30;;;27.40;99.90;;;;;;4950731;28;20285;-82
2021/08/16 08:57:04;;;;;;;10.90;10.00;;;27.20;99.90;;;;;;4965235;28;20256;-80
2021/08/16 08:59:31;;;;;;;11.53;10.73;;;27.30;99.90;;;;;;4965039;28;20198;-80
2021/08/16 09:02:00;;;;;;;11.07;10.27;;;27.30;99.90;;;;;;4962062;28;20198;-80
2021/08/16 09:04:28;;;;;;;10.43;9.53;;;27.50;99.90;;;;;;4987396;23;20816;-76
2021/08/16 09:06:55;;;;;;;10.10;9.30;;;27.70;99.90;;;;;;4971498;28;20201;-76
2021/08/16 09:09:22;;;;;;;10.33;9.50;;;27.80;99.90;;;;;;4972633;28;20285;-76
2021/08/16 09:11:52;;;;;;;11.60;9.50;;;27.90;99.90;;;;;;4963845;28;20718;-76
2021/08/16 09:14:20;;;;;;;11.63;10.83;;;28.20;99.90;;;;;;4959162;28;20226;-76
2021/08/16 09:16:49;;;;;;;10.17;9.37;;;27.80;99.90;;;;;;4945711;29;20231;-76
2021/08/16 09:19:17;;;;;;;12.50;11.70;;;27.30;99.90;;;;;;4960704;28;20199;-76
2021/08/16 09:21:48;;;;;;;12.70;11.80;;;26.60;99.90;;;;;;4953947;29;20206;-77
2021/08/16 09:24:23;;;;;;;12.47;11.57;;;25.90;99.90;;;;;;4953907;28;20725;-77
2021/08/16 09:26:51;;;;;;;11.90;11.13;;;25.10;99.90;;;;;;4952564;29;20194;-76
2021/08/16 09:29:20;;;;;;;12.27;11.37;;;24.60;99.90;;;;;;4954012;29;20198;-77
2021/08/16 09:31:52;;;;;;;11.70;10.80;;;24.30;99.90;;;;;;4952381;29;20198;-77
2021/08/16 09:34:28;;;;;;;11.60;10.70;;;23.90;99.90;;;;;;4953676;28;20285;-76
2021/08/16 09:36:56;;;;;;;11.47;10.47;;;23.60;99.90;;;;;;4941042;29;20281;-76
2021/08/16 09:39:24;;;;;;;11.90;10.80;;;23.50;99.90;;;;;;4947584;29;20199;-76
2021/08/16 09:41:58;;;;;;;8.83;8.13;;;23.60;99.90;;;;;;4952407;29;20237;-76
2021/08/16 09:44:25;;;;;;;6.03;5.53;;;23.70;99.90;;;;;;4957346;28;20247;-77
2021/08/16 09:47:00;;;;;;;6.07;5.10;;;23.70;99.90;;;;;;4959055;29;20241;-77
2021/08/16 09:49:27;;;;;;;9.53;6.00;;;23.60;99.90;;;;;;4958856;29;20288;-76
2021/08/16 09:52:03;;;;;;;11.33;10.40;;;23.60;99.90;;;;;;4952209;29;20190;-77
2021/08/16 09:54:31;;;;;;;11.30;10.40;;;23.80;99.90;;;;;;4954733;28;20604;-76
2021/08/16 09:57:00;;;;;;;12.13;10.87;;;23.90;99.90;;;;;;4949205;29;20223;-77
2021/08/16 09:59:28;;;;;;;11.93;10.93;;;23.80;99.90;;;;;;4955405;29;20665;-76
2021/08/16 10:01:55;;;;;;;10.90;9.87;;;23.80;99.90;;;;;;4941524;29;20282;-76
2021/08/16 10:04:22;;;;;;;11.70;10.60;;;23.60;99.90;;;;;;4951191;29;20498;-76
2021/08/16 10:06:51;;;;;;;11.67;10.77;;;24.00;99.90;;;;;;4958684;29;20202;-76
2021/08/16 10:09:21;;;;;;;10.67;9.83;;;24.20;99.90;;;;;;4965675;28;20202;-76
2021/08/16 10:11:49;;;;;;;10.90;9.67;;;24.20;99.90;;;;;;4959197;29;20210;-76
2021/08/16 10:14:19;;;;;;;11.77;10.57;;;24.10;99.90;;;;;;4957830;29;20234;-77
2021/08/16 10:16:49;;;;;;;11.07;10.17;;;24.10;99.90;;;;;;4957375;29;20633;-77
2021/08/16 10:19:19;;;;;;;11.33;10.43;;;24.30;99.90;;;;;;4959225;29;20210;-76
2021/08/16 10:21:48;;;;;;;11.27;10.37;;;24.30;99.90;;;;;;4958692;28;20206;-77
2021/08/16 10:24:19;;;;;;;12.40;11.30;;;24.20;99.90;;;;;;4951259;29;20226;-77
2021/08/16 10:26:56;;;;;;;11.53;10.53;;;24.10;99.90;;;;;;4957101;29;20245;-77
2021/08/16 10:29:24;;;;;;;11.47;10.57;;;24.00;99.90;;;;;;4958460;29;20175;-77
2021/08/16 10:31:53;;;;;;;11.37;10.27;;;23.80;99.90;;;;;;4958295;29;20191;-76
2021/08/16 10:34:27;;;;;;;10.60;9.70;;;23.60;99.90;;;;;;4948849;29;20258;-76
2021/08/16 10:36:59;;;;;;;10.93;9.80;;;23.30;99.90;;;;;;4952828;29;20210;-78
2021/08/16 10:39:37;;;;;;;10.67;9.77;;;23.20;99.90;;;;;;4956491;29;20202;-76
2021/08/16 10:42:06;;;;;;;10.93;10.03;;;23.00;99.90;;;;;;4957546;29;20199;-77
2021/08/16 10:44:43;;;;;;;10.83;9.93;;;22.90;99.90;;;;;;4955758;29;20269;-77
2021/08/16 10:47:11;;;;;;;10.37;9.60;;;22.80;99.90;;;;;;4952326;29;20226;-77
2021/08/16 10:49:39;;;;;;;10.90;9.90;;;22.70;99.90;;;;;;4934501;29;20206;-77
2021/08/16 10:52:18;;;;;;;10.70;9.80;;;22.60;99.90;;;;;;4956869;29;20254;-77
2021/08/16 10:54:45;;;;;;;10.97;10.07;;;22.60;99.90;;;;;;4955137;28;20214;-77
2021/08/16 10:57:12;;;;;;;10.73;9.83;;;22.60;99.90;;;;;;4956709;29;20214;-77
2021/08/16 10:59:40;;;;;;;10.30;9.50;;;22.70;99.90;;;;;;4955533;28;20277;-77
2021/08/16 11:02:07;;;;;;;10.43;9.63;;;23.00;99.90;;;;;;4945460;29;20267;-76
2021/08/16 11:04:35;;;;;;;10.20;9.40;;;23.40;99.90;;;;;;4956989;29;20230;-77
2021/08/16 11:07:04;;;;;;;10.63;9.73;;;23.70;99.90;;;;;;4953502;29;20199;-77
2021/08/16 11:09:32;;;;;;;11.03;10.00;;;24.10;99.90;;;;;;4945575;29;20204;-77
2021/08/16 11:12:03;;;;;;;10.67;9.70;;;24.40;99.90;;;;;;4950158;29;20237;-77
2021/08/16 11:14:31;;;;;;;7.60;5.13;;;24.60;99.90;;;;;;4952408;29;20230;-77
2021/08/16 11:17:00;;;;;;;9.63;8.93;;;24.90;99.90;;;;;;4949318;29;20210;-77
2021/08/16 11:19:39;;;;;;;10.53;9.57;;;25.20;99.90;;;;;;4946976;29;20257;-77
2021/08/16 11:22:06;;;;;;;10.27;9.23;;;25.10;99.90;;;;;;4951310;29;20605;-77
2021/08/16 11:24:36;;;;;;;10.10;9.30;;;25.00;99.90;;;;;;4957336;29;20266;-77
2021/08/16 11:27:03;;;;;;;10.30;9.47;;;24.80;99.90;;;;;;4956807;29;20224;-77
2021/08/16 11:29:30;;;;;;;10.37;9.37;;;24.70;99.90;;;;;;4946190;29;20251;-77
2021/08/16 11:32:02;;;;;;;10.07;9.20;;;24.90;99.90;;;;;;4952831;28;20255;-77
2021/08/16 11:34:30;;;;;;;9.70;9.00;;;24.90;99.90;;;;;;4951843;29;20725;-77
2021/08/16 11:36:58;;;;;;;10.70;9.80;;;24.60;99.90;;;;;;4952376;29;20222;-77
2021/08/16 11:39:29;;;;;;;11.57;10.73;;;24.30;99.90;;;;;;4952197;29;20260;-77
2021/08/16 11:41:59;;;;;;;7.87;6.53;;;24.30;99.90;;;;;;4952930;29;20261;-77
2021/08/16 11:44:26;;;;;;;5.73;5.13;;;24.30;99.90;;;;;;4947229;29;20214;-77
2021/08/16 11:46:53;;;;;;;7.00;5.40;;;24.40;99.90;;;;;;4955053;28;20211;-76
2021/08/16 11:49:26;;;;;;;6.20;5.57;;;24.50;99.90;;;;;;4951164;29;20263;-77
2021/08/16 11:51:55;;;;;;;6.20;5.60;;;24.70;99.90;;;;;;4956511;29;20245;-77
2021/08/16 11:54:27;;;;;;;7.77;5.73;;;24.80;99.90;;;;;;4949748;28;20218;-77
2021/08/16 11:56:56;;;;;;;6.60;5.40;;;24.70;99.90;;;;;;4955241;29;20210;-77
2021/08/16 11:59:23;;;;;;;10.33;9.43;;;24.40;99.90;;;;;;4956381;29;20210;-77
2021/08/16 12:01:51;;;;;;;11.03;10.10;;;24.40;99.90;;;;;;4948010;29;20266;-76
2021/08/16 12:04:18;;;;;;;11.77;10.83;;;24.60;99.90;;;;;;4950871;28;20254;-77
2021/08/16 12:06:48;;;;;;;9.00;5.10;;;24.70;99.90;;;;;;4951948;28;20210;-78
2021/08/16 12:09:15;;;;;;;10.30;9.30;;;24.70;99.90;;;;;;4956349;29;20249;-77
2021/08/16 12:11:42;;;;;;;8.97;7.43;;;24.80;99.90;;;;;;4946360;29;20261;-77
2021/08/16 12:14:09;;;;;;;9.20;7.17;;;24.60;99.90;;;;;;4954275;28;20237;-77
2021/08/16 12:16:37;;;;;;;9.67;8.83;;;24.70;99.90;;;;;;4954281;29;20205;-77
2021/08/16 12:19:05;;;;;;;5.37;4.83;;;24.80;99.90;;;;;;4952087;29;20554;-77
2021/08/16 12:21:33;;;;;;;6.30;5.70;;;24.70;99.90;;;;;;4954566;29;20277;-76
2021/08/16 12:24:03;;;;;;;8.27;7.40;;;24.60;99.90;;;;;;4954533;29;20226;-77
2021/08/16 12:26:32;;;;;;;10.20;9.40;;;24.60;99.90;;;;;;4955766;29;20210;-77
2021/08/16 12:28:59;;;;;;;10.83;9.83;;;24.40;99.90;;;;;;4955430;29;20210;-77
2021/08/16 12:31:29;;;;;;;11.10;10.10;;;24.30;99.90;;;;;;4955556;29;20264;-77
2021/08/16 12:33:58;;;;;;;8.97;8.27;;;24.20;99.90;;;;;;4955210;28;20218;-77